Terminal Aerodrome Forecast
Issued by NWS

Current Version | Previous Version | Text Only | Print | Product List | Glossary On
Versions: 1 2 3 4 5 6 7 8 9 10 11 12 13 14 15 16 17 18 19 20 21 22 23 24 25 26 27 28 29 30 31 32 33 34 35 36 37
970
FTUS44 KEWX 180738 AAA
TAFSSF
TAF AMD
KSSF 180738Z 1808/1906 36009KT P6SM -RA OVC008
      TEMPO 1808/1810 5SM -TSRA SCT008 OVC012CB
     FM181800 36005KT P6SM VCSH OVC012
     FM190200 VRB03KT P6SM OVC012=

USA.gov is the U.S. government's official web portal to all federal, state and local government web resources and services.